createdAt,value
2022-09-23T00:00:17.071Z,0
2022-09-23T00:05:17.061Z,0
2022-09-23T00:10:17.015Z,0
2022-09-23T00:15:17.042Z,0
2022-09-23T00:20:17.059Z,0
2022-09-23T00:25:17.039Z,0
2022-09-23T00:30:17.021Z,0
2022-09-23T00:35:17.005Z,0
2022-09-23T00:40:17.087Z,0
2022-09-23T00:45:17.006Z,0
2022-09-23T00:50:17.017Z,0
2022-09-23T00:55:17.006Z,0
2022-09-23T01:00:17.136Z,0
2022-09-23T01:05:17.027Z,0
2022-09-23T01:10:17.034Z,0
2022-09-23T01:15:17.014Z,0
2022-09-23T01:20:17.017Z,0
2022-09-23T01:25:17.010Z,0
2022-09-23T01:30:16.997Z,0
2022-09-23T01:35:17.006Z,0
2022-09-23T01:40:17.056Z,0
2022-09-23T01:45:17.015Z,0
2022-09-23T01:50:17.016Z,0
2022-09-23T01:55:16.993Z,0
2022-09-23T02:00:17.016Z,0
2022-09-23T02:05:16.993Z,0
2022-09-23T02:10:16.980Z,0
2022-09-23T02:15:17.012Z,0
2022-09-23T02:20:16.990Z,0
2022-09-23T02:25:16.962Z,0
2022-09-23T02:30:17.001Z,0
2022-09-23T02:35:16.986Z,0
2022-09-23T02:40:17.094Z,0
2022-09-23T02:45:16.987Z,0
2022-09-23T02:50:16.954Z,0
2022-09-23T02:55:16.972Z,0
2022-09-23T03:00:17.003Z,0
2022-09-23T03:05:16.931Z,0
2022-09-23T03:10:16.929Z,0
2022-09-23T03:15:16.963Z,0
2022-09-23T03:20:16.993Z,0
2022-09-23T03:25:16.940Z,0
2022-09-23T03:30:16.941Z,0
2022-09-23T03:35:16.954Z,0
2022-09-23T03:40:17.032Z,0
2022-09-23T03:45:16.949Z,0
2022-09-23T03:50:16.948Z,0
2022-09-23T03:55:16.944Z,0
2022-09-23T04:00:16.940Z,0
2022-09-23T04:05:16.936Z,0
2022-09-23T04:10:16.933Z,0
2022-09-23T04:15:16.920Z,0
2022-09-23T04:20:16.916Z,0
2022-09-23T04:25:16.910Z,0
2022-09-23T04:30:16.938Z,0
2022-09-23T04:35:16.889Z,0
2022-09-23T04:40:16.967Z,0
2022-09-23T04:45:16.899Z,0
2022-09-23T04:50:16.920Z,0
2022-09-23T04:55:16.870Z,0
2022-09-23T05:00:16.943Z,0
2022-09-23T05:05:16.923Z,0
2022-09-23T05:10:16.883Z,0
2022-09-23T05:15:16.882Z,0
2022-09-23T05:20:16.972Z,2
2022-09-23T05:25:16.910Z,2
2022-09-23T05:30:16.894Z,3
2022-09-23T05:35:16.887Z,4
2022-09-23T05:40:17.029Z,9
2022-09-23T05:45:16.859Z,4
2022-09-23T05:50:16.892Z,9
2022-09-23T05:55:16.873Z,10
2022-09-23T06:00:16.850Z,13
2022-09-23T06:05:16.877Z,14
2022-09-23T06:10:16.852Z,19
2022-09-23T06:15:16.861Z,16
2022-09-23T06:20:16.909Z,20
2022-09-23T06:25:16.838Z,25
2022-09-23T06:30:16.877Z,31
2022-09-23T06:35:25.885Z,38
2022-09-23T06:40:17.114Z,48
2022-09-23T06:45:16.876Z,60
2022-09-23T06:50:16.835Z,73
2022-09-23T06:55:16.863Z,103
2022-09-23T07:00:16.861Z,161
2022-09-23T07:05:16.821Z,203
2022-09-23T07:10:16.844Z,231
2022-09-23T07:15:16.825Z,210
2022-09-23T07:20:16.872Z,203
2022-09-23T07:25:16.844Z,252
2022-09-23T07:30:24.189Z,211
2022-09-23T07:35:16.854Z,215
2022-09-23T07:40:16.912Z,307
2022-09-23T07:45:16.843Z,347
2022-09-23T07:50:16.788Z,395
2022-09-23T07:55:20.797Z,378
2022-09-23T08:00:16.855Z,341
2022-09-23T08:05:16.838Z,378
2022-09-23T08:10:16.819Z,337
2022-09-23T08:15:16.811Z,367
2022-09-23T08:20:16.841Z,413
2022-09-23T08:25:19.104Z,494
2022-09-23T08:30:16.820Z,585
2022-09-23T08:35:16.814Z,603
2022-09-23T08:40:16.848Z,583
2022-09-23T08:45:16.827Z,654
2022-09-23T08:50:16.820Z,695
2022-09-23T08:55:16.805Z,692
2022-09-23T09:00:16.821Z,700
2022-09-23T09:05:16.819Z,716
2022-09-23T09:10:16.796Z,706
2022-09-23T09:15:16.801Z,692
2022-09-23T09:20:16.802Z,632
2022-09-23T09:25:16.772Z,619
2022-09-23T09:30:16.783Z,671
2022-09-23T09:35:16.766Z,662
2022-09-23T09:40:17.008Z,576
2022-09-23T09:45:19.463Z,614
2022-09-23T09:50:16.808Z,670
2022-09-23T09:55:16.736Z,595
2022-09-23T10:00:16.771Z,480
2022-09-23T10:05:16.773Z,637
2022-09-23T10:10:31.671Z,726
2022-09-23T10:15:16.729Z,686
2022-09-23T10:20:17.041Z,625
2022-09-23T10:25:17.256Z,546
2022-09-23T10:30:17.245Z,539
2022-09-23T10:35:17.759Z,496
2022-09-23T10:40:17.897Z,426
2022-09-23T10:45:18.024Z,382
2022-09-23T10:50:18.003Z,353
2022-09-23T10:55:18.032Z,353
2022-09-23T11:00:18.057Z,343
2022-09-23T11:05:18.046Z,330
2022-09-23T11:10:23.545Z,323
2022-09-23T11:15:18.011Z,314
2022-09-23T11:20:18.087Z,324
2022-09-23T11:25:18.290Z,343
2022-09-23T11:30:18.287Z,359
2022-09-23T11:35:18.274Z,357
2022-09-23T11:40:18.381Z,351
2022-09-23T11:45:18.298Z,344
2022-09-23T11:50:18.302Z,326
2022-09-23T11:55:22.472Z,309
2022-09-23T12:00:18.304Z,295
2022-09-23T12:05:18.447Z,286
2022-09-23T12:10:18.572Z,286
2022-09-23T12:15:18.533Z,279
2022-09-23T12:20:18.920Z,276
2022-09-23T12:25:18.758Z,278
2022-09-23T12:30:19.099Z,278
2022-09-23T12:35:19.033Z,296
2022-09-23T12:40:19.423Z,332
2022-09-23T12:45:21.254Z,349
2022-09-23T12:50:23.753Z,351
2022-09-23T12:55:21.122Z,364
2022-09-23T13:00:21.123Z,359
2022-09-23T13:05:21.122Z,341
2022-09-23T13:10:21.801Z,317
2022-09-23T13:15:21.761Z,277
2022-09-23T13:20:21.801Z,298
2022-09-23T13:25:21.789Z,323
2022-09-23T13:30:25.857Z,305
2022-09-23T13:35:22.023Z,263
2022-09-23T13:40:22.103Z,218
2022-09-23T13:45:21.988Z,191
2022-09-23T13:50:22.008Z,183
2022-09-23T13:55:22.001Z,185
2022-09-23T14:00:22.038Z,185
2022-09-23T14:05:22.030Z,172
2022-09-23T14:10:22.007Z,142
2022-09-23T14:15:22.039Z,129
2022-09-23T14:20:22.544Z,113
2022-09-23T14:25:22.264Z,101
2022-09-23T14:30:22.828Z,82
2022-09-23T14:35:22.801Z,73
2022-09-23T14:40:23.171Z,70
2022-09-23T14:45:23.132Z,74
2022-09-23T14:50:23.329Z,78
2022-09-23T14:55:23.568Z,79
2022-09-23T15:00:24.240Z,76
2022-09-23T15:05:24.061Z,72
2022-09-23T15:10:24.057Z,69
2022-09-23T15:15:24.303Z,66
2022-09-23T15:20:24.351Z,65
2022-09-23T15:25:24.317Z,64
2022-09-23T15:30:24.305Z,62
2022-09-23T15:35:24.319Z,61
2022-09-23T15:40:24.474Z,61
2022-09-23T15:45:24.293Z,59
2022-09-23T15:50:24.279Z,58
2022-09-23T15:55:24.316Z,56
2022-09-23T16:00:24.318Z,48
2022-09-23T16:05:24.313Z,38
2022-09-23T16:10:24.315Z,26
2022-09-23T16:15:25.998Z,22
2022-09-23T16:20:26.010Z,21
2022-09-23T16:25:25.967Z,18
2022-09-23T16:30:26.257Z,16
2022-09-23T16:35:30.168Z,14
2022-09-23T16:40:30.284Z,10
2022-09-23T16:45:30.319Z,9
2022-09-23T16:50:30.495Z,7
2022-09-23T16:55:30.518Z,3
2022-09-23T17:00:30.807Z,1
2022-09-23T17:05:30.993Z,0
2022-09-23T17:10:31.245Z,0
2022-09-23T17:15:31.506Z,0
2022-09-23T17:20:31.461Z,0
2022-09-23T17:25:31.725Z,0
2022-09-23T17:30:31.709Z,0
2022-09-23T17:35:32.323Z,0
2022-09-23T17:40:32.909Z,0
2022-09-23T17:45:33.710Z,0
2022-09-23T17:50:33.686Z,0
2022-09-23T17:55:34.238Z,0
2022-09-23T18:00:34.256Z,0
2022-09-23T18:05:34.168Z,0
2022-09-23T18:10:34.185Z,0
2022-09-23T18:15:34.245Z,0
2022-09-23T18:20:34.155Z,0
2022-09-23T18:25:41.389Z,0
2022-09-23T18:30:34.177Z,0
2022-09-23T18:35:34.238Z,0
2022-09-23T18:40:35.017Z,0
2022-09-23T18:45:34.977Z,0
2022-09-23T18:50:34.899Z,0
2022-09-23T18:55:36.671Z,0
2022-09-23T19:00:37.369Z,0
2022-09-23T19:05:37.291Z,0
2022-09-23T19:10:37.269Z,0
2022-09-23T19:15:37.311Z,0
2022-09-23T19:20:37.561Z,0
2022-09-23T19:25:40.026Z,0
2022-09-23T19:30:39.904Z,0
2022-09-23T19:35:39.869Z,0
2022-09-23T19:40:39.930Z,0
2022-09-23T19:45:40.112Z,0
2022-09-23T19:50:40.381Z,0
2022-09-23T19:55:40.383Z,0
2022-09-23T20:00:40.649Z,0
2022-09-23T20:05:40.861Z,0
2022-09-23T20:10:40.832Z,0
2022-09-23T20:15:40.864Z,0
2022-09-23T20:20:40.834Z,0
2022-09-23T20:25:40.835Z,0
2022-09-23T20:30:40.911Z,0
2022-09-23T20:35:40.860Z,0
2022-09-23T20:40:42.346Z,0
2022-09-23T20:45:42.104Z,0
2022-09-23T20:50:42.141Z,0
2022-09-23T20:55:42.100Z,0
2022-09-23T21:00:42.170Z,0
2022-09-23T21:05:42.693Z,0
2022-09-23T21:10:42.995Z,0
2022-09-23T21:15:45.148Z,0
2022-09-23T21:20:44.977Z,0
2022-09-23T21:25:45.149Z,0
2022-09-23T21:30:49.763Z,0
2022-09-23T21:35:45.728Z,0
2022-09-23T21:40:45.729Z,0
2022-09-23T21:45:45.916Z,0
2022-09-23T21:50:46.924Z,0
2022-09-23T21:55:46.874Z,0
2022-09-23T22:00:47.412Z,0
2022-09-23T22:05:48.469Z,0
2022-09-23T22:10:48.581Z,0
2022-09-23T22:15:48.506Z,0
2022-09-23T22:20:48.493Z,0
2022-09-23T22:25:48.726Z,0
2022-09-23T22:30:48.755Z,0
2022-09-23T22:35:52.538Z,0
2022-09-23T22:40:52.447Z,0
2022-09-23T22:45:52.378Z,0
2022-09-23T22:50:52.640Z,0
2022-09-23T22:55:53.272Z,0
2022-09-23T23:00:52.860Z,0
2022-09-23T23:05:52.896Z,0
2022-09-23T23:10:52.873Z,0
2022-09-23T23:15:53.135Z,0
2022-09-23T23:20:53.353Z,0
2022-09-23T23:25:53.402Z,0
2022-09-23T23:30:53.430Z,0
2022-09-23T23:35:53.358Z,0
2022-09-23T23:40:53.449Z,0
2022-09-23T23:45:53.380Z,0
2022-09-23T23:50:53.622Z,0
2022-09-23T23:55:53.629Z,0
